sensor_id;sensor_type;location;lat;lon;timestamp;temperature;humidity
18930;DHT22;43305;52.186;5.598;2023-11-19T00:00:38;13.50;99.90
18930;DHT22;43305;52.186;5.598;2023-11-19T00:03:05;13.60;99.90
18930;DHT22;43305;52.186;5.598;2023-11-19T00:05:32;13.60;99.90
18930;DHT22;43305;52.186;5.598;2023-11-19T00:07:59;13.60;99.90
18930;DHT22;43305;52.186;5.598;2023-11-19T00:10:26;13.50;99.90
18930;DHT22;43305;52.186;5.598;2023-11-19T00:12:52;13.60;99.90
18930;DHT22;43305;52.186;5.598;2023-11-19T00:15:21;13.60;99.90
18930;DHT22;43305;52.186;5.598;2023-11-19T00:17:50;13.60;99.90
18930;DHT22;43305;52.186;5.598;2023-11-19T00:20:18;13.50;99.90
18930;DHT22;43305;52.186;5.598;2023-11-19T00:22:48;13.50;99.90
18930;DHT22;43305;52.186;5.598;2023-11-19T00:25:17;13.50;99.90
18930;DHT22;43305;52.186;5.598;2023-11-19T00:27:44;13.50;99.90
18930;DHT22;43305;52.186;5.598;2023-11-19T00:30:11;13.50;99.90
18930;DHT22;43305;52.186;5.598;2023-11-19T00:32:40;13.50;99.90
18930;DHT22;43305;52.186;5.598;2023-11-19T00:35:08;13.50;99.90
18930;DHT22;43305;52.186;5.598;2023-11-19T00:37:35;13.50;99.90
18930;DHT22;43305;52.186;5.598;2023-11-19T00:40:02;13.50;99.90
18930;DHT22;43305;52.186;5.598;2023-11-19T00:42:31;13.40;99.90
18930;DHT22;43305;52.186;5.598;2023-11-19T00:44:58;13.40;99.90
18930;DHT22;43305;52.186;5.598;2023-11-19T00:47:24;13.40;99.90
18930;DHT22;43305;52.186;5.598;2023-11-19T00:49:53;13.40;99.90
18930;DHT22;43305;52.186;5.598;2023-11-19T00:52:22;13.40;99.90
18930;DHT22;43305;52.186;5.598;2023-11-19T00:54:50;13.40;99.90
18930;DHT22;43305;52.186;5.598;2023-11-19T00:57:17;13.40;99.90
18930;DHT22;43305;52.186;5.598;2023-11-19T00:59:43;13.40;99.90
18930;DHT22;43305;52.186;5.598;2023-11-19T01:02:11;13.40;99.90
18930;DHT22;43305;52.186;5.598;2023-11-19T01:04:39;13.40;99.90
18930;DHT22;43305;52.186;5.598;2023-11-19T01:07:07;13.40;99.90
18930;DHT22;43305;52.186;5.598;2023-11-19T01:09:38;13.40;99.90
18930;DHT22;43305;52.186;5.598;2023-11-19T01:12:06;13.40;99.90
18930;DHT22;43305;52.186;5.598;2023-11-19T01:14:33;13.40;99.90
18930;DHT22;43305;52.186;5.598;2023-11-19T01:17:01;13.40;99.90
18930;DHT22;43305;52.186;5.598;2023-11-19T01:19:27;13.40;99.90
18930;DHT22;43305;52.186;5.598;2023-11-19T01:21:54;13.40;99.90
18930;DHT22;43305;52.186;5.598;2023-11-19T01:24:23;13.40;99.90
18930;DHT22;43305;52.186;5.598;2023-11-19T01:26:51;13.40;99.90
18930;DHT22;43305;52.186;5.598;2023-11-19T01:29:19;13.40;99.90
18930;DHT22;43305;52.186;5.598;2023-11-19T01:31:48;13.40;99.90
18930;DHT22;43305;52.186;5.598;2023-11-19T01:34:16;13.40;99.90
18930;DHT22;43305;52.186;5.598;2023-11-19T01:36:43;13.50;99.90
18930;DHT22;43305;52.186;5.598;2023-11-19T01:39:12;13.40;99.90
18930;DHT22;43305;52.186;5.598;2023-11-19T01:41:42;13.50;99.90
18930;DHT22;43305;52.186;5.598;2023-11-19T01:44:09;13.40;99.90
18930;DHT22;43305;52.186;5.598;2023-11-19T01:46:38;13.40;99.90
18930;DHT22;43305;52.186;5.598;2023-11-19T01:49:07;13.40;99.90
18930;DHT22;43305;52.186;5.598;2023-11-19T01:51:35;13.40;99.90
18930;DHT22;43305;52.186;5.598;2023-11-19T01:54:02;13.40;99.90
18930;DHT22;43305;52.186;5.598;2023-11-19T01:56:34;13.40;99.90
18930;DHT22;43305;52.186;5.598;2023-11-19T01:59:03;13.40;99.90
18930;DHT22;43305;52.186;5.598;2023-11-19T02:01:32;13.40;99.90
18930;DHT22;43305;52.186;5.598;2023-11-19T02:04:05;13.50;99.90
18930;DHT22;43305;52.186;5.598;2023-11-19T02:06:33;13.50;99.90
18930;DHT22;43305;52.186;5.598;2023-11-19T02:09:01;13.40;99.90
18930;DHT22;43305;52.186;5.598;2023-11-19T02:11:33;13.50;99.90
18930;DHT22;43305;52.186;5.598;2023-11-19T02:14:01;13.40;99.90
18930;DHT22;43305;52.186;5.598;2023-11-19T02:16:29;13.50;99.90
18930;DHT22;43305;52.186;5.598;2023-11-19T02:18:56;13.50;99.90
18930;DHT22;43305;52.186;5.598;2023-11-19T02:21:23;13.40;99.90
18930;DHT22;43305;52.186;5.598;2023-11-19T02:23:50;13.40;99.90
18930;DHT22;43305;52.186;5.598;2023-11-19T02:26:24;13.40;99.90
18930;DHT22;43305;52.186;5.598;2023-11-19T02:28:55;13.40;99.90
18930;DHT22;43305;52.186;5.598;2023-11-19T02:31:22;13.30;99.90
18930;DHT22;43305;52.186;5.598;2023-11-19T02:33:49;13.30;99.90
18930;DHT22;43305;52.186;5.598;2023-11-19T02:36:17;13.30;99.90
18930;DHT22;43305;52.186;5.598;2023-11-19T02:38:44;13.20;99.90
18930;DHT22;43305;52.186;5.598;2023-11-19T02:41:11;13.20;99.90
18930;DHT22;43305;52.186;5.598;2023-11-19T02:43:38;13.20;99.90
18930;DHT22;43305;52.186;5.598;2023-11-19T02:46:07;13.20;99.90
18930;DHT22;43305;52.186;5.598;2023-11-19T02:48:34;13.10;99.90
18930;DHT22;43305;52.186;5.598;2023-11-19T02:51:01;13.10;99.90
18930;DHT22;43305;52.186;5.598;2023-11-19T02:53:29;13.00;99.90
18930;DHT22;43305;52.186;5.598;2023-11-19T02:55:56;13.00;99.90
18930;DHT22;43305;52.186;5.598;2023-11-19T02:58:28;13.00;99.90
18930;DHT22;43305;52.186;5.598;2023-11-19T03:00:55;13.00;99.90
18930;DHT22;43305;52.186;5.598;2023-11-19T03:03:26;13.00;99.90
18930;DHT22;43305;52.186;5.598;2023-11-19T03:06:04;12.90;99.90
18930;DHT22;43305;52.186;5.598;2023-11-19T03:08:31;12.90;99.90
18930;DHT22;43305;52.186;5.598;2023-11-19T03:10:59;12.90;99.90
18930;DHT22;43305;52.186;5.598;2023-11-19T03:13:26;12.90;99.90
18930;DHT22;43305;52.186;5.598;2023-11-19T03:15:53;12.80;99.90
18930;DHT22;43305;52.186;5.598;2023-11-19T03:18:20;12.80;99.90
18930;DHT22;43305;52.186;5.598;2023-11-19T03:20:49;12.80;99.90
18930;DHT22;43305;52.186;5.598;2023-11-19T03:23:17;12.80;99.90
18930;DHT22;43305;52.186;5.598;2023-11-19T03:25:44;12.80;99.90
18930;DHT22;43305;52.186;5.598;2023-11-19T03:28:11;12.70;99.90
18930;DHT22;43305;52.186;5.598;2023-11-19T03:30:38;12.70;99.90
18930;DHT22;43305;52.186;5.598;2023-11-19T03:33:05;12.60;99.90
18930;DHT22;43305;52.186;5.598;2023-11-19T03:35:32;12.50;99.90
18930;DHT22;43305;52.186;5.598;2023-11-19T03:38:01;12.50;99.90
18930;DHT22;43305;52.186;5.598;2023-11-19T03:40:28;12.40;99.90
18930;DHT22;43305;52.186;5.598;2023-11-19T03:42:56;12.40;99.90
18930;DHT22;43305;52.186;5.598;2023-11-19T03:45:23;12.40;99.90
18930;DHT22;43305;52.186;5.598;2023-11-19T03:47:51;12.30;99.90
18930;DHT22;43305;52.186;5.598;2023-11-19T03:50:18;12.30;99.90
18930;DHT22;43305;52.186;5.598;2023-11-19T03:52:46;12.20;99.90
18930;DHT22;43305;52.186;5.598;2023-11-19T03:55:14;12.10;99.90
18930;DHT22;43305;52.186;5.598;2023-11-19T03:57:41;12.10;99.90
18930;DHT22;43305;52.186;5.598;2023-11-19T04:00:08;12.10;99.90
18930;DHT22;43305;52.186;5.598;2023-11-19T04:02:35;12.00;99.90
18930;DHT22;43305;52.186;5.598;2023-11-19T04:05:05;12.00;99.90
18930;DHT22;43305;52.186;5.598;2023-11-19T04:07:33;11.90;99.90
18930;DHT22;43305;52.186;5.598;2023-11-19T04:10:00;11.90;99.90
18930;DHT22;43305;52.186;5.598;2023-11-19T04:12:28;11.90;99.90
18930;DHT22;43305;52.186;5.598;2023-11-19T04:14:55;11.90;99.90
18930;DHT22;43305;52.186;5.598;2023-11-19T04:17:22;11.80;99.90
18930;DHT22;43305;52.186;5.598;2023-11-19T04:19:52;11.80;99.90
18930;DHT22;43305;52.186;5.598;2023-11-19T04:22:22;11.90;99.90
18930;DHT22;43305;52.186;5.598;2023-11-19T04:24:52;11.80;99.90
18930;DHT22;43305;52.186;5.598;2023-11-19T04:27:19;11.80;99.90
18930;DHT22;43305;52.186;5.598;2023-11-19T04:29:47;11.90;99.90
18930;DHT22;43305;52.186;5.598;2023-11-19T04:32:16;11.80;99.90
18930;DHT22;43305;52.186;5.598;2023-11-19T04:34:43;11.90;99.90
18930;DHT22;43305;52.186;5.598;2023-11-19T04:37:09;11.90;99.90
18930;DHT22;43305;52.186;5.598;2023-11-19T04:39:36;11.90;99.90
18930;DHT22;43305;52.186;5.598;2023-11-19T04:42:06;11.80;99.90
18930;DHT22;43305;52.186;5.598;2023-11-19T04:44:33;11.80;99.90
18930;DHT22;43305;52.186;5.598;2023-11-19T04:47:01;11.80;99.90
18930;DHT22;43305;52.186;5.598;2023-11-19T04:49:28;11.70;99.90
18930;DHT22;43305;52.186;5.598;2023-11-19T04:51:56;11.70;99.90
18930;DHT22;43305;52.186;5.598;2023-11-19T04:54:23;11.70;99.90
18930;DHT22;43305;52.186;5.598;2023-11-19T04:56:53;11.70;99.90
18930;DHT22;43305;52.186;5.598;2023-11-19T04:59:20;11.70;99.90
18930;DHT22;43305;52.186;5.598;2023-11-19T05:01:47;11.70;99.90
18930;DHT22;43305;52.186;5.598;2023-11-19T05:04:15;11.60;99.90
18930;DHT22;43305;52.186;5.598;2023-11-19T05:06:44;11.60;99.90
18930;DHT22;43305;52.186;5.598;2023-11-19T05:09:11;11.60;99.90
18930;DHT22;43305;52.186;5.598;2023-11-19T05:11:39;11.60;99.90
18930;DHT22;43305;52.186;5.598;2023-11-19T05:14:06;11.60;99.90
18930;DHT22;43305;52.186;5.598;2023-11-19T05:16:32;11.60;99.90
18930;DHT22;43305;52.186;5.598;2023-11-19T05:18:59;11.60;99.90
18930;DHT22;43305;52.186;5.598;2023-11-19T05:21:28;11.60;99.90
18930;DHT22;43305;52.186;5.598;2023-11-19T05:23:54;11.60;99.90
18930;DHT22;43305;52.186;5.598;2023-11-19T05:26:23;11.60;99.90
18930;DHT22;43305;52.186;5.598;2023-11-19T05:28:51;11.60;99.90
18930;DHT22;43305;52.186;5.598;2023-11-19T05:31:18;11.60;99.90
18930;DHT22;43305;52.186;5.598;2023-11-19T05:33:45;11.60;99.90
18930;DHT22;43305;52.186;5.598;2023-11-19T05:36:12;11.50;99.90
18930;DHT22;43305;52.186;5.598;2023-11-19T05:38:40;11.50;99.90
18930;DHT22;43305;52.186;5.598;2023-11-19T05:41:07;11.60;99.90
18930;DHT22;43305;52.186;5.598;2023-11-19T05:43:34;11.50;99.90
18930;DHT22;43305;52.186;5.598;2023-11-19T05:46:01;11.50;99.90
18930;DHT22;43305;52.186;5.598;2023-11-19T05:48:29;11.40;99.90
18930;DHT22;43305;52.186;5.598;2023-11-19T05:50:56;11.50;99.90
18930;DHT22;43305;52.186;5.598;2023-11-19T05:53:23;11.40;99.90
18930;DHT22;43305;52.186;5.598;2023-11-19T05:55:51;11.40;99.90
18930;DHT22;43305;52.186;5.598;2023-11-19T05:58:24;11.40;99.90
18930;DHT22;43305;52.186;5.598;2023-11-19T06:00:54;11.30;99.90
18930;DHT22;43305;52.186;5.598;2023-11-19T06:03:24;11.20;99.90
18930;DHT22;43305;52.186;5.598;2023-11-19T06:05:53;11.30;99.90
18930;DHT22;43305;52.186;5.598;2023-11-19T06:08:24;11.20;99.90
18930;DHT22;43305;52.186;5.598;2023-11-19T06:10:53;11.20;99.90
18930;DHT22;43305;52.186;5.598;2023-11-19T06:13:23;11.20;99.90
18930;DHT22;43305;52.186;5.598;2023-11-19T06:15:51;11.20;99.90
18930;DHT22;43305;52.186;5.598;2023-11-19T06:18:18;11.20;99.90
18930;DHT22;43305;52.186;5.598;2023-11-19T06:20:46;11.20;99.90
18930;DHT22;43305;52.186;5.598;2023-11-19T06:23:13;11.20;99.90
18930;DHT22;43305;52.186;5.598;2023-11-19T06:25:40;11.20;99.90
18930;DHT22;43305;52.186;5.598;2023-11-19T06:28:08;11.20;99.90
18930;DHT22;43305;52.186;5.598;2023-11-19T06:30:35;11.30;99.90
18930;DHT22;43305;52.186;5.598;2023-11-19T06:33:02;11.20;99.90
18930;DHT22;43305;52.186;5.598;2023-11-19T06:35:29;11.30;99.90
18930;DHT22;43305;52.186;5.598;2023-11-19T06:38:01;11.30;99.90
18930;DHT22;43305;52.186;5.598;2023-11-19T06:40:28;11.30;99.90
18930;DHT22;43305;52.186;5.598;2023-11-19T06:42:56;11.30;99.90
18930;DHT22;43305;52.186;5.598;2023-11-19T06:45:24;11.30;99.90
18930;DHT22;43305;52.186;5.598;2023-11-19T06:47:54;11.30;99.90
18930;DHT22;43305;52.186;5.598;2023-11-19T06:50:27;11.30;99.90
18930;DHT22;43305;52.186;5.598;2023-11-19T06:52:54;11.20;99.90
18930;DHT22;43305;52.186;5.598;2023-11-19T06:55:21;11.20;99.90
18930;DHT22;43305;52.186;5.598;2023-11-19T06:57:48;11.10;99.90
18930;DHT22;43305;52.186;5.598;2023-11-19T07:00:16;11.10;99.90
18930;DHT22;43305;52.186;5.598;2023-11-19T07:02:45;11.10;99.90
18930;DHT22;43305;52.186;5.598;2023-11-19T07:05:11;11.10;99.90
18930;DHT22;43305;52.186;5.598;2023-11-19T07:07:38;11.20;99.90
18930;DHT22;43305;52.186;5.598;2023-11-19T07:10:06;11.20;99.90
18930;DHT22;43305;52.186;5.598;2023-11-19T07:12:34;11.20;99.90
18930;DHT22;43305;52.186;5.598;2023-11-19T07:15:02;11.20;99.90
18930;DHT22;43305;52.186;5.598;2023-11-19T07:17:30;11.20;99.90
18930;DHT22;43305;52.186;5.598;2023-11-19T07:19:58;11.20;99.90
18930;DHT22;43305;52.186;5.598;2023-11-19T07:22:25;11.20;99.90
18930;DHT22;43305;52.186;5.598;2023-11-19T07:24:54;11.20;99.90
18930;DHT22;43305;52.186;5.598;2023-11-19T07:27:24;11.30;99.90
18930;DHT22;43305;52.186;5.598;2023-11-19T07:29:54;11.20;99.90
18930;DHT22;43305;52.186;5.598;2023-11-19T07:32:22;11.30;99.90
18930;DHT22;43305;52.186;5.598;2023-11-19T07:34:48;11.30;99.90
18930;DHT22;43305;52.186;5.598;2023-11-19T07:37:17;11.20;99.90
18930;DHT22;43305;52.186;5.598;2023-11-19T07:39:44;11.30;99.90
18930;DHT22;43305;52.186;5.598;2023-11-19T07:42:11;11.30;99.90
18930;DHT22;43305;52.186;5.598;2023-11-19T07:44:37;11.30;99.90
18930;DHT22;43305;52.186;5.598;2023-11-19T07:47:04;11.40;99.90
18930;DHT22;43305;52.186;5.598;2023-11-19T07:49:31;11.40;99.90
18930;DHT22;43305;52.186;5.598;2023-11-19T07:51:59;11.40;99.90
18930;DHT22;43305;52.186;5.598;2023-11-19T07:54:27;11.50;99.90
18930;DHT22;43305;52.186;5.598;2023-11-19T07:56:54;11.50;99.90
18930;DHT22;43305;52.186;5.598;2023-11-19T07:59:22;11.50;99.90
18930;DHT22;43305;52.186;5.598;2023-11-19T08:01:49;11.60;99.90
18930;DHT22;43305;52.186;5.598;2023-11-19T08:04:16;11.60;99.90
18930;DHT22;43305;52.186;5.598;2023-11-19T08:06:43;11.60;99.90
18930;DHT22;43305;52.186;5.598;2023-11-19T08:09:11;11.70;99.90
18930;DHT22;43305;52.186;5.598;2023-11-19T08:11:40;11.70;99.90
18930;DHT22;43305;52.186;5.598;2023-11-19T08:14:07;11.70;99.90
18930;DHT22;43305;52.186;5.598;2023-11-19T08:16:35;11.70;99.90
18930;DHT22;43305;52.186;5.598;2023-11-19T08:19:03;11.60;99.90
18930;DHT22;43305;52.186;5.598;2023-11-19T08:21:30;11.70;99.90
18930;DHT22;43305;52.186;5.598;2023-11-19T08:23:57;11.60;99.90
18930;DHT22;43305;52.186;5.598;2023-11-19T08:26:23;11.70;99.90
18930;DHT22;43305;52.186;5.598;2023-11-19T08:28:54;11.70;99.90
18930;DHT22;43305;52.186;5.598;2023-11-19T08:31:24;11.70;99.90
18930;DHT22;43305;52.186;5.598;2023-11-19T08:33:51;11.70;99.90
18930;DHT22;43305;52.186;5.598;2023-11-19T08:36:21;11.70;99.90
18930;DHT22;43305;52.186;5.598;2023-11-19T08:38:48;11.80;99.90
18930;DHT22;43305;52.186;5.598;2023-11-19T08:41:17;11.80;99.90
18930;DHT22;43305;52.186;5.598;2023-11-19T08:43:44;11.80;99.90
18930;DHT22;43305;52.186;5.598;2023-11-19T08:46:13;11.80;99.90
18930;DHT22;43305;52.186;5.598;2023-11-19T08:48:40;11.80;99.90
18930;DHT22;43305;52.186;5.598;2023-11-19T08:51:07;11.90;99.90
18930;DHT22;43305;52.186;5.598;2023-11-19T08:53:34;11.90;99.90
18930;DHT22;43305;52.186;5.598;2023-11-19T08:56:01;12.00;99.90
18930;DHT22;43305;52.186;5.598;2023-11-19T08:58:28;12.10;99.90
18930;DHT22;43305;52.186;5.598;2023-11-19T09:00:56;12.20;99.90
18930;DHT22;43305;52.186;5.598;2023-11-19T09:03:27;12.20;99.90
18930;DHT22;43305;52.186;5.598;2023-11-19T09:05:55;12.30;99.90
18930;DHT22;43305;52.186;5.598;2023-11-19T09:08:25;12.30;99.90
18930;DHT22;43305;52.186;5.598;2023-11-19T09:10:51;12.30;99.90
18930;DHT22;43305;52.186;5.598;2023-11-19T09:13:18;12.20;99.90
18930;DHT22;43305;52.186;5.598;2023-11-19T09:15:45;12.30;99.90
18930;DHT22;43305;52.186;5.598;2023-11-19T09:18:12;12.20;99.90
18930;DHT22;43305;52.186;5.598;2023-11-19T09:20:40;12.30;99.90
18930;DHT22;43305;52.186;5.598;2023-11-19T09:23:07;12.40;99.90
18930;DHT22;43305;52.186;5.598;2023-11-19T09:25:34;12.40;99.90
18930;DHT22;43305;52.186;5.598;2023-11-19T09:28:01;12.40;99.90
18930;DHT22;43305;52.186;5.598;2023-11-19T09:30:28;12.50;99.90
18930;DHT22;43305;52.186;5.598;2023-11-19T09:32:55;12.50;99.90
18930;DHT22;43305;52.186;5.598;2023-11-19T09:35:21;12.50;99.90
18930;DHT22;43305;52.186;5.598;2023-11-19T09:37:52;12.50;99.90
18930;DHT22;43305;52.186;5.598;2023-11-19T09:40:19;12.50;99.90
18930;DHT22;43305;52.186;5.598;2023-11-19T09:42:47;12.50;99.90
18930;DHT22;43305;52.186;5.598;2023-11-19T09:45:15;12.50;99.90
18930;DHT22;43305;52.186;5.598;2023-11-19T09:47:43;12.50;99.90
18930;DHT22;43305;52.186;5.598;2023-11-19T09:50:16;12.50;99.90
18930;DHT22;43305;52.186;5.598;2023-11-19T09:52:43;12.60;99.90
18930;DHT22;43305;52.186;5.598;2023-11-19T09:55:11;12.50;99.90
18930;DHT22;43305;52.186;5.598;2023-11-19T09:57:39;12.50;99.90
18930;DHT22;43305;52.186;5.598;2023-11-19T10:00:08;12.60;99.90
18930;DHT22;43305;52.186;5.598;2023-11-19T10:02:37;12.70;99.90
18930;DHT22;43305;52.186;5.598;2023-11-19T10:05:06;12.70;99.90
18930;DHT22;43305;52.186;5.598;2023-11-19T10:07:33;12.80;99.90
18930;DHT22;43305;52.186;5.598;2023-11-19T10:10:00;12.80;99.90
18930;DHT22;43305;52.186;5.598;2023-11-19T10:12:31;12.70;99.90
18930;DHT22;43305;52.186;5.598;2023-11-19T10:14:58;12.70;99.90
18930;DHT22;43305;52.186;5.598;2023-11-19T10:17:27;12.70;99.90
18930;DHT22;43305;52.186;5.598;2023-11-19T10:19:55;12.70;99.90
18930;DHT22;43305;52.186;5.598;2023-11-19T10:22:25;12.80;99.90
18930;DHT22;43305;52.186;5.598;2023-11-19T10:24:56;12.80;99.90
18930;DHT22;43305;52.186;5.598;2023-11-19T10:27:24;12.80;99.90
18930;DHT22;43305;52.186;5.598;2023-11-19T10:29:53;12.90;99.90
18930;DHT22;43305;52.186;5.598;2023-11-19T10:32:20;12.90;99.90
18930;DHT22;43305;52.186;5.598;2023-11-19T10:34:47;12.90;99.90
18930;DHT22;43305;52.186;5.598;2023-11-19T10:37:28;12.90;99.90
18930;DHT22;43305;52.186;5.598;2023-11-19T10:39:57;13.00;99.90
18930;DHT22;43305;52.186;5.598;2023-11-19T10:42:27;13.10;99.90
18930;DHT22;43305;52.186;5.598;2023-11-19T10:44:55;13.10;99.90
18930;DHT22;43305;52.186;5.598;2023-11-19T10:47:24;13.10;99.90
18930;DHT22;43305;52.186;5.598;2023-11-19T10:49:51;13.10;99.90
18930;DHT22;43305;52.186;5.598;2023-11-19T10:52:18;13.10;99.90
18930;DHT22;43305;52.186;5.598;2023-11-19T10:54:50;13.10;99.90
18930;DHT22;43305;52.186;5.598;2023-11-19T10:57:20;13.20;99.90
18930;DHT22;43305;52.186;5.598;2023-11-19T10:59:49;13.30;99.90
18930;DHT22;43305;52.186;5.598;2023-11-19T11:02:24;13.30;99.90
18930;DHT22;43305;52.186;5.598;2023-11-19T11:04:56;13.40;99.90
18930;DHT22;43305;52.186;5.598;2023-11-19T11:07:26;13.40;99.90
18930;DHT22;43305;52.186;5.598;2023-11-19T11:09:57;13.60;99.90
18930;DHT22;43305;52.186;5.598;2023-11-19T11:12:25;13.90;99.90
18930;DHT22;43305;52.186;5.598;2023-11-19T11:14:56;14.20;99.90
18930;DHT22;43305;52.186;5.598;2023-11-19T11:17:27;14.40;99.90
18930;DHT22;43305;52.186;5.598;2023-11-19T11:19:54;14.50;99.90
18930;DHT22;43305;52.186;5.598;2023-11-19T11:22:22;14.30;99.90
18930;DHT22;43305;52.186;5.598;2023-11-19T11:25:11;14.30;99.90
18930;DHT22;43305;52.186;5.598;2023-11-19T11:28:09;14.20;99.90
18930;DHT22;43305;52.186;5.598;2023-11-19T11:30:49;14.20;99.90
18930;DHT22;43305;52.186;5.598;2023-11-19T11:33:33;14.10;99.90
18930;DHT22;43305;52.186;5.598;2023-11-19T11:36:11;14.00;99.90
18930;DHT22;43305;52.186;5.598;2023-11-19T11:38:41;14.10;99.90
18930;DHT22;43305;52.186;5.598;2023-11-19T11:41:18;14.00;99.90
18930;DHT22;43305;52.186;5.598;2023-11-19T11:43:47;14.00;99.90
18930;DHT22;43305;52.186;5.598;2023-11-19T11:49:29;14.00;99.90
18930;DHT22;43305;52.186;5.598;2023-11-19T11:52:01;14.10;99.90
18930;DHT22;43305;52.186;5.598;2023-11-19T11:54:29;14.00;99.90
18930;DHT22;43305;52.186;5.598;2023-11-19T11:57:10;14.00;99.90
18930;DHT22;43305;52.186;5.598;2023-11-19T11:59:43;14.00;99.90
18930;DHT22;43305;52.186;5.598;2023-11-19T12:02:12;13.90;99.90
18930;DHT22;43305;52.186;5.598;2023-11-19T12:04:41;13.90;99.90
18930;DHT22;43305;52.186;5.598;2023-11-19T12:07:12;13.80;99.90
18930;DHT22;43305;52.186;5.598;2023-11-19T12:09:40;13.70;99.90
18930;DHT22;43305;52.186;5.598;2023-11-19T12:12:17;13.70;99.90
18930;DHT22;43305;52.186;5.598;2023-11-19T12:15:06;13.60;99.90
18930;DHT22;43305;52.186;5.598;2023-11-19T12:17:42;13.70;99.90
18930;DHT22;43305;52.186;5.598;2023-11-19T12:20:11;13.70;99.90
18930;DHT22;43305;52.186;5.598;2023-11-19T12:22:39;13.70;99.90
18930;DHT22;43305;52.186;5.598;2023-11-19T12:25:07;13.70;99.90
18930;DHT22;43305;52.186;5.598;2023-11-19T12:27:35;13.60;99.90
18930;DHT22;43305;52.186;5.598;2023-11-19T12:30:03;13.50;99.90
18930;DHT22;43305;52.186;5.598;2023-11-19T12:32:39;13.80;99.90
18930;DHT22;43305;52.186;5.598;2023-11-19T12:35:07;14.00;99.90
18930;DHT22;43305;52.186;5.598;2023-11-19T12:37:41;14.00;99.90
18930;DHT22;43305;52.186;5.598;2023-11-19T12:40:15;13.90;99.90
18930;DHT22;43305;52.186;5.598;2023-11-19T12:42:43;13.80;99.90
18930;DHT22;43305;52.186;5.598;2023-11-19T12:45:10;13.70;99.90
18930;DHT22;43305;52.186;5.598;2023-11-19T12:47:38;13.70;99.90
18930;DHT22;43305;52.186;5.598;2023-11-19T12:50:05;13.60;99.90
18930;DHT22;43305;52.186;5.598;2023-11-19T12:52:33;13.50;99.90
18930;DHT22;43305;52.186;5.598;2023-11-19T12:55:02;13.50;99.90
18930;DHT22;43305;52.186;5.598;2023-11-19T12:57:39;13.40;99.90
18930;DHT22;43305;52.186;5.598;2023-11-19T13:00:07;13.40;99.90
18930;DHT22;43305;52.186;5.598;2023-11-19T13:02:48;13.40;99.90
18930;DHT22;43305;52.186;5.598;2023-11-19T13:05:26;13.30;99.90
18930;DHT22;43305;52.186;5.598;2023-11-19T13:08:09;13.30;99.90
18930;DHT22;43305;52.186;5.598;2023-11-19T13:10:52;13.30;99.90
18930;DHT22;43305;52.186;5.598;2023-11-19T13:13:19;13.30;99.90
18930;DHT22;43305;52.186;5.598;2023-11-19T13:15:46;13.40;99.90
18930;DHT22;43305;52.186;5.598;2023-11-19T13:18:16;13.40;99.90
18930;DHT22;43305;52.186;5.598;2023-11-19T13:20:43;13.30;99.90
18930;DHT22;43305;52.186;5.598;2023-11-19T13:23:10;13.30;99.90
18930;DHT22;43305;52.186;5.598;2023-11-19T13:25:36;13.20;99.90
18930;DHT22;43305;52.186;5.598;2023-11-19T13:28:08;13.20;99.90
18930;DHT22;43305;52.186;5.598;2023-11-19T13:30:35;13.10;99.90
18930;DHT22;43305;52.186;5.598;2023-11-19T13:33:02;13.00;99.90
18930;DHT22;43305;52.186;5.598;2023-11-19T13:35:31;13.00;99.90
18930;DHT22;43305;52.186;5.598;2023-11-19T13:37:58;13.00;99.90
18930;DHT22;43305;52.186;5.598;2023-11-19T13:40:25;13.00;99.90
18930;DHT22;43305;52.186;5.598;2023-11-19T13:42:52;13.00;99.90
18930;DHT22;43305;52.186;5.598;2023-11-19T13:45:22;13.00;99.90
18930;DHT22;43305;52.186;5.598;2023-11-19T13:47:50;13.00;99.90
18930;DHT22;43305;52.186;5.598;2023-11-19T13:50:17;12.90;99.90
18930;DHT22;43305;52.186;5.598;2023-11-19T13:52:44;13.00;99.90
18930;DHT22;43305;52.186;5.598;2023-11-19T13:55:12;13.10;99.90
18930;DHT22;43305;52.186;5.598;2023-11-19T13:57:40;13.10;99.90
18930;DHT22;43305;52.186;5.598;2023-11-19T14:00:09;13.10;99.90
18930;DHT22;43305;52.186;5.598;2023-11-19T14:02:39;13.10;99.90
18930;DHT22;43305;52.186;5.598;2023-11-19T14:05:07;13.10;99.90
18930;DHT22;43305;52.186;5.598;2023-11-19T14:07:34;13.10;99.90
18930;DHT22;43305;52.186;5.598;2023-11-19T14:10:00;13.10;99.90
18930;DHT22;43305;52.186;5.598;2023-11-19T14:12:27;13.20;99.90
18930;DHT22;43305;52.186;5.598;2023-11-19T14:14:54;13.20;99.90
18930;DHT22;43305;52.186;5.598;2023-11-19T14:17:21;13.10;99.90
18930;DHT22;43305;52.186;5.598;2023-11-19T14:19:49;13.10;99.90
18930;DHT22;43305;52.186;5.598;2023-11-19T14:22:16;13.00;99.90
18930;DHT22;43305;52.186;5.598;2023-11-19T14:24:43;13.00;99.90
18930;DHT22;43305;52.186;5.598;2023-11-19T14:27:10;13.00;99.90
18930;DHT22;43305;52.186;5.598;2023-11-19T14:29:37;13.00;99.90
18930;DHT22;43305;52.186;5.598;2023-11-19T14:32:05;13.00;99.90
18930;DHT22;43305;52.186;5.598;2023-11-19T14:34:32;12.90;99.90
18930;DHT22;43305;52.186;5.598;2023-11-19T14:37:00;12.90;99.90
18930;DHT22;43305;52.186;5.598;2023-11-19T14:39:27;12.90;99.90
18930;DHT22;43305;52.186;5.598;2023-11-19T14:41:56;12.80;99.90
18930;DHT22;43305;52.186;5.598;2023-11-19T14:44:26;12.80;99.90
18930;DHT22;43305;52.186;5.598;2023-11-19T14:46:54;12.80;99.90
18930;DHT22;43305;52.186;5.598;2023-11-19T14:49:21;12.70;99.90
18930;DHT22;43305;52.186;5.598;2023-11-19T14:51:50;12.70;99.90
18930;DHT22;43305;52.186;5.598;2023-11-19T14:54:18;12.60;99.90
18930;DHT22;43305;52.186;5.598;2023-11-19T14:56:45;12.60;99.90
18930;DHT22;43305;52.186;5.598;2023-11-19T14:59:12;12.60;99.90
18930;DHT22;43305;52.186;5.598;2023-11-19T15:01:39;12.50;99.90
18930;DHT22;43305;52.186;5.598;2023-11-19T15:04:06;12.60;99.90
18930;DHT22;43305;52.186;5.598;2023-11-19T15:06:33;12.50;99.90
18930;DHT22;43305;52.186;5.598;2023-11-19T15:09:01;12.50;99.90
18930;DHT22;43305;52.186;5.598;2023-11-19T15:11:29;12.60;99.90
18930;DHT22;43305;52.186;5.598;2023-11-19T15:13:56;12.60;99.90
18930;DHT22;43305;52.186;5.598;2023-11-19T15:16:26;12.60;99.90
18930;DHT22;43305;52.186;5.598;2023-11-19T15:18:57;12.60;99.90
18930;DHT22;43305;52.186;5.598;2023-11-19T15:21:25;12.60;99.90
18930;DHT22;43305;52.186;5.598;2023-11-19T15:23:52;12.60;99.90
18930;DHT22;43305;52.186;5.598;2023-11-19T15:26:22;12.70;99.90
18930;DHT22;43305;52.186;5.598;2023-11-19T15:28:56;12.60;99.90
18930;DHT22;43305;52.186;5.598;2023-11-19T15:31:27;12.60;99.90
18930;DHT22;43305;52.186;5.598;2023-11-19T15:33:57;12.60;99.90
18930;DHT22;43305;52.186;5.598;2023-11-19T15:36:30;12.60;99.90
18930;DHT22;43305;52.186;5.598;2023-11-19T15:39:00;12.60;99.90
18930;DHT22;43305;52.186;5.598;2023-11-19T15:41:27;12.60;99.90